sensor_id;sensor_type;location;lat;lon;timestamp;P1;durP1;ratioP1;P2;durP2;ratioP2
83485;SDS011;73423;45.118;20.726;2023-12-04T00:06:47;19.48;;;9.15;;
83485;SDS011;73423;45.118;20.726;2023-12-04T00:16:48;14.90;;;8.13;;
83485;SDS011;73423;45.118;20.726;2023-12-04T00:26:49;18.00;;;8.17;;
83485;SDS011;73423;45.118;20.726;2023-12-04T00:36:50;32.40;;;12.40;;
83485;SDS011;73423;45.118;20.726;2023-12-04T00:46:51;28.30;;;12.70;;
83485;SDS011;73423;45.118;20.726;2023-12-04T00:56:52;16.93;;;9.20;;
83485;SDS011;73423;45.118;20.726;2023-12-04T01:06:53;24.13;;;11.88;;
83485;SDS011;73423;45.118;20.726;2023-12-04T01:16:54;23.85;;;12.32;;
83485;SDS011;73423;45.118;20.726;2023-12-04T01:26:56;22.97;;;11.80;;
83485;SDS011;73423;45.118;20.726;2023-12-04T01:36:57;35.60;;;16.27;;
83485;SDS011;73423;45.118;20.726;2023-12-04T01:46:58;33.72;;;16.25;;
83485;SDS011;73423;45.118;20.726;2023-12-04T01:56:59;40.23;;;17.90;;
83485;SDS011;73423;45.118;20.726;2023-12-04T02:07:02;55.93;;;24.00;;
83485;SDS011;73423;45.118;20.726;2023-12-04T02:17:04;47.17;;;20.98;;
83485;SDS011;73423;45.118;20.726;2023-12-04T02:27:10;54.60;;;23.23;;
83485;SDS011;73423;45.118;20.726;2023-12-04T02:37:15;59.20;;;25.30;;
83485;SDS011;73423;45.118;20.726;2023-12-04T02:47:17;41.97;;;17.48;;
83485;SDS011;73423;45.118;20.726;2023-12-04T02:57:19;34.60;;;16.00;;
83485;SDS011;73423;45.118;20.726;2023-12-04T03:07:21;33.90;;;15.30;;
83485;SDS011;73423;45.118;20.726;2023-12-04T03:17:24;30.70;;;14.10;;
83485;SDS011;73423;45.118;20.726;2023-12-04T03:27:25;30.25;;;13.73;;
83485;SDS011;73423;45.118;20.726;2023-12-04T03:37:27;23.17;;;12.13;;
83485;SDS011;73423;45.118;20.726;2023-12-04T03:47:28;24.67;;;12.70;;
83485;SDS011;73423;45.118;20.726;2023-12-04T03:57:29;6.75;;;4.00;;
83485;SDS011;73423;45.118;20.726;2023-12-04T04:07:30;11.23;;;6.10;;
83485;SDS011;73423;45.118;20.726;2023-12-04T04:17:32;28.37;;;8.60;;
83485;SDS011;73423;45.118;20.726;2023-12-04T04:27:34;85.50;;;18.20;;
83485;SDS011;73423;45.118;20.726;2023-12-04T04:37:35;27.45;;;13.73;;
83485;SDS011;73423;45.118;20.726;2023-12-04T04:47:36;15.97;;;7.63;;
83485;SDS011;73423;45.118;20.726;2023-12-04T04:57:38;20.97;;;8.93;;
83485;SDS011;73423;45.118;20.726;2023-12-04T05:07:39;52.90;;;19.40;;
83485;SDS011;73423;45.118;20.726;2023-12-04T05:17:40;47.03;;;20.33;;
83485;SDS011;73423;45.118;20.726;2023-12-04T05:27:41;91.20;;;31.83;;
83485;SDS011;73423;45.118;20.726;2023-12-04T05:37:42;106.25;;;35.97;;
83485;SDS011;73423;45.118;20.726;2023-12-04T05:47:44;139.13;;;43.27;;
83485;SDS011;73423;45.118;20.726;2023-12-04T05:57:45;119.40;;;41.50;;
83485;SDS011;73423;45.118;20.726;2023-12-04T06:07:46;109.25;;;39.38;;
83485;SDS011;73423;45.118;20.726;2023-12-04T06:17:49;75.20;;;28.13;;
83485;SDS011;73423;45.118;20.726;2023-12-04T06:27:50;92.83;;;30.23;;
83485;SDS011;73423;45.118;20.726;2023-12-04T06:37:53;172.50;;;54.83;;
83485;SDS011;73423;45.118;20.726;2023-12-04T06:47:55;131.90;;;44.05;;
83485;SDS011;73423;45.118;20.726;2023-12-04T06:57:58;109.30;;;45.97;;
83485;SDS011;73423;45.118;20.726;2023-12-04T07:07:59;117.90;;;50.57;;
83485;SDS011;73423;45.118;20.726;2023-12-04T07:18:00;109.60;;;49.42;;
83485;SDS011;73423;45.118;20.726;2023-12-04T07:28:01;75.53;;;32.87;;
83485;SDS011;73423;45.118;20.726;2023-12-04T07:38:03;190.07;;;62.07;;
83485;SDS011;73423;45.118;20.726;2023-12-04T07:48:05;68.78;;;28.33;;
83485;SDS011;73423;45.118;20.726;2023-12-04T07:58:06;60.97;;;23.35;;
83485;SDS011;73423;45.118;20.726;2023-12-04T08:08:07;46.73;;;21.23;;
83485;SDS011;73423;45.118;20.726;2023-12-04T08:18:09;44.20;;;23.37;;
83485;SDS011;73423;45.118;20.726;2023-12-04T08:28:11;86.15;;;32.10;;
83485;SDS011;73423;45.118;20.726;2023-12-04T08:38:12;25.77;;;12.77;;
83485;SDS011;73423;45.118;20.726;2023-12-04T08:48:13;21.30;;;11.00;;
83485;SDS011;73423;45.118;20.726;2023-12-04T08:58:14;36.53;;;15.35;;
83485;SDS011;73423;45.118;20.726;2023-12-04T09:08:16;78.33;;;25.13;;
83485;SDS011;73423;45.118;20.726;2023-12-04T09:18:18;33.47;;;14.90;;
83485;SDS011;73423;45.118;20.726;2023-12-04T09:28:19;16.27;;;10.10;;
83485;SDS011;73423;45.118;20.726;2023-12-04T09:38:20;28.97;;;15.47;;
83485;SDS011;73423;45.118;20.726;2023-12-04T09:48:23;31.37;;;16.40;;
83485;SDS011;73423;45.118;20.726;2023-12-04T09:58:27;19.43;;;13.73;;
83485;SDS011;73423;45.118;20.726;2023-12-04T10:08:33;19.48;;;12.77;;
83485;SDS011;73423;45.118;20.726;2023-12-04T10:18:35;19.67;;;12.10;;
83485;SDS011;73423;45.118;20.726;2023-12-04T10:28:36;13.43;;;8.27;;
83485;SDS011;73423;45.118;20.726;2023-12-04T10:38:38;21.83;;;11.35;;
83485;SDS011;73423;45.118;20.726;2023-12-04T10:48:40;14.97;;;9.93;;
83485;SDS011;73423;45.118;20.726;2023-12-04T10:58:43;14.97;;;9.87;;
83485;SDS011;73423;45.118;20.726;2023-12-04T11:08:45;25.23;;;17.92;;
83485;SDS011;73423;45.118;20.726;2023-12-04T11:18:55;15.20;;;9.97;;
83485;SDS011;73423;45.118;20.726;2023-12-04T11:29:02;16.77;;;10.93;;
83485;SDS011;73423;45.118;20.726;2023-12-04T11:39:08;16.83;;;10.60;;
83485;SDS011;73423;45.118;20.726;2023-12-04T11:59:34;25.80;;;16.40;;
83485;SDS011;73423;45.118;20.726;2023-12-04T12:09:37;20.67;;;11.48;;
83485;SDS011;73423;45.118;20.726;2023-12-04T12:19:39;47.17;;;20.23;;
83485;SDS011;73423;45.118;20.726;2023-12-04T12:29:40;24.60;;;12.33;;
83485;SDS011;73423;45.118;20.726;2023-12-04T12:39:42;18.73;;;11.40;;
83485;SDS011;73423;45.118;20.726;2023-12-04T12:49:43;16.58;;;10.02;;
83485;SDS011;73423;45.118;20.726;2023-12-04T12:59:46;16.33;;;9.83;;
83485;SDS011;73423;45.118;20.726;2023-12-04T13:09:47;47.07;;;20.97;;
83485;SDS011;73423;45.118;20.726;2023-12-04T13:19:49;25.25;;;12.88;;
83485;SDS011;73423;45.118;20.726;2023-12-04T13:29:50;23.97;;;11.77;;
83485;SDS011;73423;45.118;20.726;2023-12-04T13:39:51;31.33;;;15.27;;
83485;SDS011;73423;45.118;20.726;2023-12-04T13:49:59;54.78;;;23.52;;
83485;SDS011;73423;45.118;20.726;2023-12-04T14:00:00;44.63;;;20.58;;
83485;SDS011;73423;45.118;20.726;2023-12-04T14:10:02;53.57;;;22.53;;
83485;SDS011;73423;45.118;20.726;2023-12-04T14:20:03;51.37;;;24.67;;
83485;SDS011;73423;45.118;20.726;2023-12-04T14:30:12;33.22;;;16.23;;
83485;SDS011;73423;45.118;20.726;2023-12-04T14:40:14;51.93;;;21.00;;
83485;SDS011;73423;45.118;20.726;2023-12-04T14:50:19;55.23;;;24.60;;
83485;SDS011;73423;45.118;20.726;2023-12-04T15:00:20;135.05;;;50.38;;
83485;SDS011;73423;45.118;20.726;2023-12-04T15:21:12;58.70;;;21.77;;
83485;SDS011;73423;45.118;20.726;2023-12-04T15:31:15;90.63;;;32.83;;
83485;SDS011;73423;45.118;20.726;2023-12-04T15:41:16;49.40;;;22.23;;
83485;SDS011;73423;45.118;20.726;2023-12-04T15:51:20;41.53;;;16.17;;
83485;SDS011;73423;45.118;20.726;2023-12-04T16:01:23;49.33;;;18.87;;
83485;SDS011;73423;45.118;20.726;2023-12-04T16:11:24;54.63;;;21.25;;
83485;SDS011;73423;45.118;20.726;2023-12-04T16:21:25;30.73;;;14.47;;
83485;SDS011;73423;45.118;20.726;2023-12-04T16:31:27;46.93;;;19.13;;
83485;SDS011;73423;45.118;20.726;2023-12-04T16:41:28;37.05;;;15.63;;
83485;SDS011;73423;45.118;20.726;2023-12-04T16:51:29;27.77;;;13.07;;
83485;SDS011;73423;45.118;20.726;2023-12-04T17:01:30;33.47;;;11.83;;
83485;SDS011;73423;45.118;20.726;2023-12-04T17:11:32;31.73;;;12.05;;
83485;SDS011;73423;45.118;20.726;2023-12-04T17:21:33;23.38;;;10.52;;
83485;SDS011;73423;45.118;20.726;2023-12-04T17:31:36;26.67;;;12.00;;
83485;SDS011;73423;45.118;20.726;2023-12-04T17:41:39;35.13;;;15.53;;
83485;SDS011;73423;45.118;20.726;2023-12-04T17:52:01;23.27;;;10.07;;
83485;SDS011;73423;45.118;20.726;2023-12-04T18:02:28;21.00;;;9.97;;
83485;SDS011;73423;45.118;20.726;2023-12-04T18:12:29;29.50;;;12.30;;
83485;SDS011;73423;45.118;20.726;2023-12-04T18:22:31;26.27;;;12.05;;
83485;SDS011;73423;45.118;20.726;2023-12-04T18:32:33;21.97;;;10.43;;
83485;SDS011;73423;45.118;20.726;2023-12-04T18:42:34;24.43;;;10.23;;
83485;SDS011;73423;45.118;20.726;2023-12-04T18:52:37;28.55;;;11.77;;
83485;SDS011;73423;45.118;20.726;2023-12-04T19:02:39;31.10;;;13.60;;
83485;SDS011;73423;45.118;20.726;2023-12-04T19:12:40;37.83;;;16.13;;
83485;SDS011;73423;45.118;20.726;2023-12-04T19:22:42;30.87;;;13.47;;
83485;SDS011;73423;45.118;20.726;2023-12-04T19:32:43;28.23;;;13.13;;
83485;SDS011;73423;45.118;20.726;2023-12-04T19:42:48;18.57;;;9.73;;
83485;SDS011;73423;45.118;20.726;2023-12-04T19:53:04;22.27;;;10.80;;
83485;SDS011;73423;45.118;20.726;2023-12-04T20:03:11;22.55;;;9.48;;
83485;SDS011;73423;45.118;20.726;2023-12-04T20:13:12;19.03;;;8.67;;
83485;SDS011;73423;45.118;20.726;2023-12-04T20:23:14;17.57;;;8.20;;
83485;SDS011;73423;45.118;20.726;2023-12-04T20:33:18;17.17;;;7.93;;
83485;SDS011;73423;45.118;20.726;2023-12-04T20:43:20;17.92;;;8.05;;
83485;SDS011;73423;45.118;20.726;2023-12-04T20:53:21;18.93;;;8.67;;
83485;SDS011;73423;45.118;20.726;2023-12-04T21:03:23;20.07;;;8.73;;
83485;SDS011;73423;45.118;20.726;2023-12-04T21:13:24;18.52;;;8.45;;
83485;SDS011;73423;45.118;20.726;2023-12-04T21:23:25;19.57;;;9.17;;
83485;SDS011;73423;45.118;20.726;2023-12-04T21:33:26;22.07;;;8.00;;
83485;SDS011;73423;45.118;20.726;2023-12-04T21:43:27;20.00;;;8.35;;
83485;SDS011;73423;45.118;20.726;2023-12-04T21:53:29;17.10;;;7.40;;
83485;SDS011;73423;45.118;20.726;2023-12-04T22:03:30;19.73;;;9.27;;
83485;SDS011;73423;45.118;20.726;2023-12-04T22:13:31;21.23;;;10.80;;
83485;SDS011;73423;45.118;20.726;2023-12-04T22:23:32;26.27;;;10.52;;
83485;SDS011;73423;45.118;20.726;2023-12-04T22:33:33;23.93;;;9.40;;
83485;SDS011;73423;45.118;20.726;2023-12-04T22:43:35;15.40;;;7.90;;
83485;SDS011;73423;45.118;20.726;2023-12-04T22:53:37;20.00;;;8.80;;
83485;SDS011;73423;45.118;20.726;2023-12-04T23:03:38;27.37;;;9.40;;
83485;SDS011;73423;45.118;20.726;2023-12-04T23:13:40;19.67;;;5.93;;
83485;SDS011;73423;45.118;20.726;2023-12-04T23:23:42;25.35;;;8.73;;
83485;SDS011;73423;45.118;20.726;2023-12-04T23:33:43;22.83;;;7.73;;
83485;SDS011;73423;45.118;20.726;2023-12-04T23:43:45;18.80;;;7.70;;
83485;SDS011;73423;45.118;20.726;2023-12-04T23:53:46;17.13;;;8.48;;
